Nearby METAR Reports

 

LGBL - Nea Anchialos, Greece
Distance from station: ΝΔ 21km
Ενημερώθηκε: 26/07/2014 19:50
Few Clouds
Few Clouds
 Ανεμος από ΑΝΑ
Ανεμος: ΑΝΑ 15 km/h
Θερμοκρασία: 30°C
Heat Index: 30°C
Σημείο Δρόσου: 16°C
Υγρασία: 43%
Βαρόμετρο: 1010 hPa
Clouds: Few Clouds
Visibility: 10 km
Cloud details: Few Clouds 1219 m
2014/07/26 16:50 LGBL 261650Z 12008KT 9999 FEW040 30/16 Q1010 NOSIG
LGSK - Skiathos Island, Greece
Distance from station: ΑΝΑ 51km
Ενημερώθηκε: 26/07/2014 19:50
Αίθριος
Αίθριος
 Ανεμος από calm
Ανεμος: Απνοια
Θερμοκρασία: 29°C
Heat Index: 29°C
Σημείο Δρόσου: 18°C
Υγρασία: 51%
Βαρόμετρο: 1011 hPa
Περίληψη: Αίθριος
Visibility: greater than 10 km
2014/07/26 16:50 LGSK 261650Z 00000KT CAVOK 29/18 Q1011
 
LGTS - Thessaloniki/Mik, Greece
Distance from station: 0 128km
Ενημερώθηκε: 26/07/2014 19:50
Few Clouds
Few Clouds
 Ανεμος από ΝΝΔ
Ανεμος: ΝΝΔ 13 km/h
Θερμοκρασία: 30°C
Heat Index: 29°C
Σημείο Δρόσου: 15°C
Υγρασία: 40%
Βαρόμετρο: 1010 hPa
Clouds: Few Clouds
Visibility: 10 km
Cloud details: Few Clouds 762 m
2014/07/26 16:50 LGTS 261650Z 21007KT 9999 FEW025 30/15 Q1010 NOSIG
LGSY - Skiros, Greece
Distance from station: ΑΝΑ 139km
Ενημερώθηκε: 26/07/2014 19:50
Few Clouds
Few Clouds
 Ανεμος από ΒΔ
Ανεμος: ΒΔ 17 km/h
Θερμοκρασία: 28°C
Heat Index: 29°C
Σημείο Δρόσου: 20°C
Υγρασία: 62%
Βαρόμετρο: 1009 hPa
Clouds: Few Clouds
Visibility: 10 km
Cloud details: Few Clouds 610 m
2014/07/26 16:50 LGSY 261650Z 31009KT 9999 FEW020 28/20 Q1009 NOSIG BLU
 
LGKZ - Kozani (civ/Army, Greece
Distance from station: ΒΔ 140km
Ενημερώθηκε: 26/07/2014 19:50

 Ανεμος από ΑΝΑ
Ανεμος: ΑΝΑ 9 km/h
Θερμοκρασία: 27°C
Heat Index: 27°C
Σημείο Δρόσου: 15°C
Υγρασία: 48%
Βαρόμετρο: 1014 hPa
2014/07/26 16:50 LGKZ 261650Z AUTO 11005KT //// // ////// 27/15 Q1014 RE//
LGEL - Elefsis (hel-Afb, Greece
Distance from station: ΝΝΑ 153km
Ενημερώθηκε: 26/07/2014 19:50
Αίθριος
Αίθριος
 Ανεμος από Β
Ανεμος: Β 13 km/h
Θερμοκρασία: 33°C
Σημείο Δρόσου: 12°C
Υγρασία: 28%
Βαρόμετρο: 1009 hPa
Περίληψη: Αίθριος
Visibility: greater than 10 km
2014/07/26 16:50 LGEL 261650Z 36007KT CAVOK 33/12 Q1009 NOSIG
 
LGAV - Athens/Elef-Ven, Greece
Distance from station: ΝΝΑ 181km
Ενημερώθηκε: 26/07/2014 19:50
Αίθριος
Αίθριος
 Ανεμος από ΒΒΑ
Ανεμος: ΒΒΑ 26 km/h
Θερμοκρασία: 28°C
Heat Index: 28°C
Σημείο Δρόσου: 16°C
Υγρασία: 48%
Βαρόμετρο: 1010 hPa
Περίληψη: Αίθριος
Visibility: greater than 10 km
2014/07/26 16:50 LGAV 261650Z 03014KT CAVOK 28/16 Q1010 NOSIG
LGIO - Ioannina, Greece
Distance from station: ΔΒΔ 187km
Ενημερώθηκε: 26/07/2014 19:50

 Ανεμος από ΔΒΔ
Ανεμος: ΔΒΔ 7 km/h
Θερμοκρασία: 29°C
Heat Index: 29°C
Σημείο Δρόσου: 15°C
Υγρασία: 43%
Βαρόμετρο: 1013 hPa
2014/07/26 16:50 LGIO 261650Z AUTO 30004KT 260V330 //// // ////// 29/15 Q1013 RE//
 
LGRX - Araxos (civ/Afb), Greece
Distance from station: ΝΔ 188km
Ενημερώθηκε: 26/07/2014 19:50
Few Clouds
Few Clouds
 Ανεμος από Δ
Ανεμος: Δ 11 km/h
Θερμοκρασία: 28°C
Heat Index: 30°C
Σημείο Δρόσου: 22°C
Υγρασία: 70%
Βαρόμετρο: 1011 hPa
Clouds: Few Clouds
Visibility: 10 km
Cloud details: Few Clouds 762 m
2014/07/26 16:50 LGRX 261650Z 26006KT 9999 FEW025 28/22 Q1011 NOSIG
LGLM - Limnos Island Ar, Greece
Distance from station: ΑΒΑ 205km
Ενημερώθηκε: 26/07/2014 19:50
Αίθριος
Αίθριος
 Ανεμος από ΒΒΔ
Ανεμος: ΒΒΔ 17 km/h
Θερμοκρασία: 29°C
Heat Index: 29°C
Σημείο Δρόσου: 17°C
Υγρασία: 48%
Βαρόμετρο: 1010 hPa
Περίληψη: Αίθριος
Visibility: greater than 10 km
2014/07/26 16:50 LGLM 261650Z 33009KT CAVOK 29/17 Q1010 NOSIG
 
LGPZ - Preveza/Aktion, Greece
Distance from station: ΔΝΔ 206km
Ενημερώθηκε: 26/07/2014 19:50
Partly Cloudy
Partly Cloudy
 Ανεμος από Δ
Ανεμος: Δ 20 km/h
Θερμοκρασία: 27°C
Heat Index: 29°C
Σημείο Δρόσου: 21°C
Υγρασία: 70%
Βαρόμετρο: 1012 hPa
Clouds: Partly Cloudy
Visibility: 10 km
Cloud details: Few Clouds 610 m
Partly Cloudy 5486 m
2014/07/26 16:50 LGPZ 261650Z 27011KT 9999 FEW020 SCT180 27/21 Q1012 NOSIG
LGAD - Andravida (civ/A, Greece
Distance from station: ΝΔ 217km
Ενημερώθηκε: 26/07/2014 19:50
Few Clouds
Few Clouds
 Ανεμος από ΔΒΔ
Ανεμος: ΔΒΔ 9 km/h
Θερμοκρασία: 27°C
Heat Index: 29°C
Σημείο Δρόσου: 21°C
Υγρασία: 70%
Βαρόμετρο: 1011 hPa
Clouds: Few Clouds
Visibility: 10 km
Cloud details: Few Clouds 610 m
2014/07/26 16:50 LGAD 261650Z 29005KT 9999 FEW020 27/21 Q1011
 
LGKV - Kavala/Chrisoupo, Greece
Distance from station: ΒΑ 223km
Ενημερώθηκε: 26/07/2014 19:50
Partly Cloudy
Partly Cloudy
 Ανεμος από ΔΝΔ
Ανεμος: ΔΝΔ 11 km/h
Θερμοκρασία: 28°C
Heat Index: 29°C
Σημείο Δρόσου: 19°C
Υγρασία: 58%
Βαρόμετρο: 1010 hPa
Clouds: Partly Cloudy
Visibility: 10 km
Cloud details: Few Clouds 762 m
Partly Cloudy 5486 m
2014/07/26 16:50 LGKV 261650Z 24006KT 9999 FEW025 SCT180 28/19 Q1010
LGKF - Kefallinia, Greece
Distance from station: ΔΝΔ 254km
Ενημερώθηκε: 26/07/2014 19:50
Few Clouds
Few Clouds
 Ανεμος από ΒΔ
Ανεμος: ΒΔ 22 km/h
Θερμοκρασία: 27°C
Heat Index: 29°C
Σημείο Δρόσου: 21°C
Υγρασία: 70%
Βαρόμετρο: 1011 hPa
Clouds: Few Clouds
Visibility: 10 km
Cloud details: Few Clouds 549 m
2014/07/26 16:50 LGKF 261650Z 32012KT 9999 FEW018 27/21 Q1011
 
LGZA - Zakinthos Airpor, Greece
Distance from station: ΝΔ 255km
Ενημερώθηκε: 26/07/2014 19:50
Αίθριος
Αίθριος
 Ανεμος από Β
Ανεμος: Β 15 km/h
Θερμοκρασία: 29°C
Heat Index: 29°C
Σημείο Δρόσου: 17°C
Υγρασία: 48%
Βαρόμετρο: 1010 hPa
Περίληψη: Αίθριος
Visibility: greater than 10 km
2014/07/26 16:50 LGZA 261650Z 35008KT CAVOK 29/17 Q1010
LGKR - Ioannis Kapodist, Greece
Distance from station: Δ 262km
Ενημερώθηκε: 26/07/2014 19:50
Αίθριος
Αίθριος
 Ανεμος από ΔΝΔ
Ανεμος: ΔΝΔ 11 km/h
Θερμοκρασία: 29°C
Heat Index: 31°C
Σημείο Δρόσου: 21°C
Υγρασία: 62%
Βαρόμετρο: 1010 hPa
Περίληψη: Αίθριος
Visibility: greater than 10 km
2014/07/26 16:50 LGKR 261650Z 25006KT CAVOK 29/21 Q1010 NOSIG
 
LGKL - Kalamata (hel-Af, Greece
Distance from station: ΝΝΔ 268km
Ενημερώθηκε: 26/07/2014 19:50
Few Clouds
Few Clouds
 Ανεμος από calm
Ανεμος: Απνοια
Θερμοκρασία: 28°C
Heat Index: 29°C
Σημείο Δρόσου: 20°C
Υγρασία: 62%
Βαρόμετρο: 1010 hPa
Clouds: Few Clouds
Visibility: 10 km
Cloud details: Few Clouds 762 m
2014/07/26 16:50 LGKL 261650Z 00000KT 9999 FEW025 28/20 Q1010
LGSO - Syros, Greece
Distance from station: ΝΑ 278km
Ενημερώθηκε: 26/07/2014 19:50
Αίθριος
Αίθριος
 Ανεμος από Β
Ανεμος: Β 15 km/h
Θερμοκρασία: 28°C
Heat Index: 28°C
Σημείο Δρόσου: 17°C
Υγρασία: 51%
Βαρόμετρο: 1009 hPa
Περίληψη: Αίθριος
Visibility: greater than 10 km
2014/07/26 16:50 LGSO 261650Z 35008KT CAVOK 28/17 Q1009
 
LGHI - Chios Airport, Greece
Distance from station: ΑΝΑ 298km
Ενημερώθηκε: 26/07/2014 19:50
Αίθριος
Αίθριος
 Ανεμος από Β
Ανεμος: Β 19 km/h
Θερμοκρασία: 31°C
Heat Index: 32°C
Σημείο Δρόσου: 17°C
Υγρασία: 43%
Βαρόμετρο: 1006 hPa
Περίληψη: Αίθριος
Visibility: greater than 10 km
2014/07/26 16:50 LGHI 261650Z 35010KT CAVOK 31/17 Q1006
LGMK - Mikonos Island, Greece
Distance from station: ΝΑ 300km
Ενημερώθηκε: 26/07/2014 19:50
Αίθριος
Αίθριος
 Ανεμος από ΒΒΔ
Ανεμος: ΒΒΔ 28 km/h
Θερμοκρασία: 26°C
Σημείο Δρόσου: 20°C
Υγρασία: 70%
Βαρόμετρο: 1009 hPa
Περίληψη: Αίθριος
Visibility: greater than 10 km
2014/07/26 16:50 LGMK 261650Z 33015KT CAVOK 26/20 Q1009
 
LGAL - Alexandroupolis, Greece
Distance from station: ΒΑ 301km
Ενημερώθηκε: 26/07/2014 19:50
Καταιγίδα, Λίγα σύννεφα
Καταιγίδα, Λίγα σύννεφα
 Ανεμος από ΒΒΑ
Ανεμος: ΒΒΑ 9 km/h
Θερμοκρασία: 32°C
Heat Index: 33°C
Σημείο Δρόσου: 17°C
Υγρασία: 41%
Βαρόμετρο: 1009 hPa
Περίληψη: Καταιγίδα
Clouds: Few Clouds
Visibility: 10 km
Cloud details: Few Clouds 762 m
2014/07/26 16:50 LGAL 261650Z 02005KT 9999 TS FEW025CB 32/17 Q1009
LGMT - Mitilini, Greece
Distance from station: Α 316km
Ενημερώθηκε: 26/07/2014 19:50
Αίθριος
Αίθριος
 Ανεμος από ΒΒΔ
Ανεμος: ΒΒΔ 15 km/h
Θερμοκρασία: 31°C
Heat Index: 32°C
Σημείο Δρόσου: 17°C
Υγρασία: 43%
Βαρόμετρο: 1007 hPa
Περίληψη: Αίθριος
Visibility: greater than 10 km
2014/07/26 16:50 LGMT 261650Z 33008KT CAVOK 31/17 Q1007
 
LGPA - Paros, Greece
Distance from station: ΝΑ 321km
Ενημερώθηκε: 26/07/2014 18:50
NOT Current

 Ανεμος από Β
Ανεμος: Β 33 km/h
Θερμοκρασία: 28°C
Heat Index: 29°C
Σημείο Δρόσου: 18°C
Υγρασία: 55%
Βαρόμετρο: 1009 hPa
2014/07/26 15:50 LGPA 261550Z AUTO 36018KT //// // ////// 28/18 Q1009 RE//
LGNX - Naxos Airport, Greece
Distance from station: ΝΑ 330km
Ενημερώθηκε: 26/07/2014 17:50
NOT Current
Few Clouds
Few Clouds
 Ανεμος από Β
Ανεμος: Β 30 km/h, Ριπή: 48 km/h
Θερμοκρασία: 27°C
Heat Index: 29°C
Σημείο Δρόσου: 21°C
Υγρασία: 70%
Βαρόμετρο: 1008 hPa
Clouds: Few Clouds
Visibility: 10 km
Cloud details: Few Clouds 762 m
2014/07/26 14:50 LGNX 261450Z 35016G26KT 9999 FEW025 27/21 Q1008
 
LGKC - Kithira Arpt, Greece
Distance from station: Ν 343km
Ενημερώθηκε: 26/07/2014 16:50
NOT Current
Few Clouds
Few Clouds
 Ανεμος από varies
Ανεμος: varies 6 km/h
Θερμοκρασία: 30°C
Heat Index: 32°C
Σημείο Δρόσου: 20°C
Υγρασία: 55%
Βαρόμετρο: 1013 hPa
Clouds: Few Clouds
Visibility: 10 km
Cloud details: Few Clouds 610 m
2014/07/26 13:50 LGKC 261350Z VRB03KT 9999 FEW020 30/20 Q1013
LBSF - Sofia (observato, Bulgaria
Distance from station: Β 367km
Ενημερώθηκε: 26/07/2014 20:00
Few Clouds
Few Clouds
 Ανεμος από Α
Ανεμος: Α 11 km/h
Θερμοκρασία: 26°C
Σημείο Δρόσου: 17°C
Υγρασία: 58%
Βαρόμετρο: 1013 hPa
Clouds: Few Clouds
Visibility: 10 km
Cloud details: Few Clouds 1859 m
2014/07/26 17:00 LBSF 261700Z 08003MPS 010V110 9999 FEW061 26/17 Q1013 NOSIG
 
LGSM - Samos Airport, Greece
Distance from station: ΑΝΑ 392km
Ενημερώθηκε: 26/07/2014 19:50
Αίθριος
Αίθριος
 Ανεμος από Β
Ανεμος: Β 19 km/h, Ριπή: 37 km/h
Θερμοκρασία: 28°C
Heat Index: 28°C
Σημείο Δρόσου: 15°C
Υγρασία: 45%
Βαρόμετρο: 1005 hPa
Περίληψη: Αίθριος
Visibility: greater than 10 km
2014/07/26 16:50 LGSM 261650Z 35010G20KT CAVOK 28/15 Q1005
LGSR - Santorini Island, Greece
Distance from station: ΝΑ 397km
Ενημερώθηκε: 26/07/2014 19:50
Αίθριος
Αίθριος
 Ανεμος από Β
Ανεμος: Β 22 km/h
Θερμοκρασία: 27°C
Heat Index: 29°C
Σημείο Δρόσου: 20°C
Υγρασία: 66%
Βαρόμετρο: 1008 hPa
Περίληψη: Αίθριος
Visibility: greater than 10 km
2014/07/26 16:50 LGSR 261650Z 35012KT CAVOK 27/20 Q1008 NOSIG
 
LGSA - Souda/Khania (af, Greece
Distance from station: ΝΝΑ 439km
Ενημερώθηκε: 26/07/2014 19:50
Αίθριος
Αίθριος
 Ανεμος από ΔΒΔ
Ανεμος: ΔΒΔ 7 km/h
Θερμοκρασία: 28°C
Heat Index: 28°C
Σημείο Δρόσου: 17°C
Υγρασία: 51%
Βαρόμετρο: 1010 hPa
Περίληψη: Αίθριος
Visibility: greater than 10 km
2014/07/26 16:50 LGSA 261650Z 30004KT CAVOK 28/17 Q1010
LGKO - Kos Airport, Greece
Distance from station: ΝΑ 460km
Ενημερώθηκε: 26/07/2014 19:50
Αίθριος
Αίθριος
 Ανεμος από ΒΔ
Ανεμος: ΒΔ 22 km/h
Θερμοκρασία: 26°C
Σημείο Δρόσου: 20°C
Υγρασία: 70%
Βαρόμετρο: 1007 hPa
Περίληψη: Αίθριος
Visibility: greater than 10 km
2014/07/26 16:50 LGKO 261650Z 31012KT CAVOK 26/20 Q1007
 
LGIR - Iraklion (civ/Af, Greece
Distance from station: ΝΝΑ 491km
Ενημερώθηκε: 26/07/2014 19:50
Few Clouds
Few Clouds
 Ανεμος από ΒΔ
Ανεμος: ΒΔ 19 km/h
Θερμοκρασία: 27°C
Heat Index: 29°C
Σημείο Δρόσου: 22°C
Υγρασία: 74%
Βαρόμετρο: 1009 hPa
Clouds: Few Clouds
Visibility: 10 km
Cloud details: Few Clouds 762 m
2014/07/26 16:50 LGIR 261650Z 32010KT 9999 FEW025 27/22 Q1009 NOSIG